»·PEaware :: WJA840 CYVR-KPSP

WJA840 :: CYVR-KPSP

FLIGHT INFORMATION

Flight Status: Arrived
Operator:
Westjet Airlines
More flights by this operator :: More flights under this callsign
Pilot: Michael F. (26726)
Aircraft: BOEING 737-800
(B738)
More flights by this aircraft type
Origin: CYVR Vancouver Intl
Canada
Destination: KPSP Palm Springs Intl
United States
More flights between these airports :: More routes between these airports
Route: YVR J5 FMG J92 BTY CLARR GFS SBONO1
File this flight plan on PilotEdge
Remarks: RMK / SIMBRIEF
Altitude:
(Current/Filed)
37,000ft
Speed:
(Current/Filed)
460kts
Departed: 16-May-20 10:55 AM
Arrived: 16-May-20 01:36 PM
Distance/Time
Traveled:
969nm/2:40
Distance/Time
To Go:
Arrived

Flight Plot

Page will automatically refresh every two minutes.


Map Options




Map Legend


Flown Route
Filed Route
Departure Airport
Arrival Airport
Navaid (VOR, NDB)
Fix

Horizontal Profiles

Position Reports

Time Latitude Longitude Heading Altitude Ground
Speed
16-May-20 10:37 49.192524 -123.199057 260 22ft 19kts
16-May-20 10:38 49.192037 -123.206953 279 22ft 17kts
16-May-20 10:39 49.192038 -123.207594 254 22ft 0kts
16-May-20 10:40 49.192038 -123.207596 254 22ft 0kts
16-May-20 10:41 49.192038 -123.207597 254 22ft 0kts
16-May-20 10:42 49.192038 -123.207599 254 22ft 0kts
16-May-20 10:43 49.192037 -123.207600 254 22ft 0kts
16-May-20 10:43 49.192037 -123.207602 254 22ft 0kts
16-May-20 10:45 49.192037 -123.207603 254 22ft 0kts
16-May-20 10:46 49.192036 -123.207605 254 22ft 0kts
16-May-20 10:46 49.192036 -123.207606 254 22ft 0kts
16-May-20 10:47 49.192036 -123.207608 254 22ft 0kts
16-May-20 10:49 49.192036 -123.207610 254 22ft 0kts
16-May-20 10:50 49.192035 -123.207611 254 22ft 0kts
16-May-20 10:50 49.191959 -123.207998 247 22ft 0kts
16-May-20 10:51 49.191958 -123.208000 247 22ft 0kts
16-May-20 10:52 49.191958 -123.208001 247 22ft 0kts
16-May-20 10:53 49.190148 -123.207618 102 22ft 23kts
16-May-20 10:54 49.185134 -123.166789 100 736ft 164kts
16-May-20 10:55 49.154471 -123.118713 187 3378ft 217kts
16-May-20 10:56 49.088439 -123.143153 186 6354ft 264kts
16-May-20 10:57 49.016508 -123.117350 159 9993ft 270kts
16-May-20 10:58 48.940888 -123.076710 162 12179ft 316kts
16-May-20 10:59 48.853973 -123.031356 162 14612ft 338kts
16-May-20 11:00 48.762747 -122.984712 162 16893ft 352kts
16-May-20 11:01 48.668563 -122.935570 163 18903ft 364kts
16-May-20 11:02 48.571265 -122.885241 163 20653ft 375kts
16-May-20 11:03 48.471235 -122.833611 163 22216ft 384kts
16-May-20 11:04 48.369043 -122.780674 163 23557ft 393kts
16-May-20 11:05 48.264719 -122.727158 164 24813ft 399kts
16-May-20 11:06 48.158989 -122.673194 164 25894ft 404kts
16-May-20 11:07 48.051938 -122.618834 164 26892ft 408kts
16-May-20 11:08 47.958996 -122.571817 165 27737ft 410kts
16-May-20 11:09 47.850280 -122.517049 165 28501ft 414kts
16-May-20 11:10 47.756934 -122.470213 165 29113ft 416kts
16-May-20 11:11 47.647009 -122.415016 165 29753ft 418kts
16-May-20 11:12 47.550145 -122.366956 165 30581ft 425kts
16-May-20 11:13 47.438764 -122.311873 166 31958ft 422kts
16-May-20 11:14 47.326455 -122.266239 170 33246ft 417kts
16-May-20 11:15 47.214758 -122.222082 169 34462ft 415kts
16-May-20 11:16 47.103339 -122.177768 170 35491ft 414kts
16-May-20 11:17 46.991862 -122.133858 170 36429ft 415kts
16-May-20 11:18 46.880155 -122.089881 170 36914ft 418kts
16-May-20 11:19 46.768374 -122.046313 170 36921ft 409kts
16-May-20 11:20 46.659243 -122.003979 170 36926ft 405kts
16-May-20 11:21 46.549755 -121.961714 170 36927ft 407kts
16-May-20 11:22 46.440359 -121.919765 170 36928ft 406kts
16-May-20 11:23 46.330977 -121.878003 171 36927ft 405kts
16-May-20 11:24 46.221972 -121.836198 170 36926ft 406kts
16-May-20 11:25 46.112420 -121.794405 170 36924ft 406kts
16-May-20 11:26 46.003380 -121.753058 171 36920ft 406kts
16-May-20 11:27 45.894167 -121.711879 171 36923ft 406kts
16-May-20 11:28 45.784744 -121.670770 171 36922ft 406kts
16-May-20 11:29 45.675395 -121.629836 171 36925ft 406kts
16-May-20 11:30 45.566221 -121.589181 171 36926ft 406kts
16-May-20 11:31 45.456385 -121.548411 171 36928ft 407kts
16-May-20 11:32 45.346587 -121.507834 172 36927ft 408kts
16-May-20 11:33 45.236475 -121.467279 172 36925ft 409kts
16-May-20 11:34 45.126249 -121.426871 172 36932ft 410kts
16-May-20 11:35 45.015727 -121.386513 172 36934ft 410kts
16-May-20 11:36 44.908863 -121.328568 143 37029ft 429kts
16-May-20 11:37 44.803052 -121.264727 158 37052ft 413kts
16-May-20 11:38 44.772872 -121.248335 158 36965ft 417kts
16-May-20 11:39 44.662379 -121.220556 173 37054ft 400kts
16-May-20 11:40 44.551752 -121.192148 160 36984ft 418kts
16-May-20 11:41 44.442747 -121.136912 162 36833ft 412kts
16-May-20 11:42 44.331369 -121.108392 175 36918ft 401kts
16-May-20 11:43 44.220696 -121.093049 160 36835ft 417kts
16-May-20 11:44 44.155543 -121.068429 174 36952ft 408kts
16-May-20 11:45 44.044191 -121.036858 170 36952ft 410kts
16-May-20 11:46 43.933878 -120.992890 162 36930ft 417kts
16-May-20 11:47 43.823265 -120.947725 166 36934ft 413kts
16-May-20 11:48 43.711691 -120.908458 167 36937ft 413kts
16-May-20 11:49 43.600016 -120.870361 167 36948ft 413kts
16-May-20 11:50 43.488600 -120.831926 167 36964ft 414kts
16-May-20 11:51 43.376741 -120.793924 167 36978ft 413kts
16-May-20 11:52 43.264987 -120.755985 167 37014ft 414kts
16-May-20 11:53 43.152768 -120.718357 167 37023ft 415kts
16-May-20 11:54 43.040776 -120.680342 160 37069ft 424kts
16-May-20 11:55 42.930316 -120.626517 170 37145ft 412kts
16-May-20 11:56 42.817557 -120.600025 173 37059ft 409kts
16-May-20 11:57 42.704575 -120.574496 167 37038ft 419kts
16-May-20 11:58 42.591393 -120.539064 167 37112ft 418kts
16-May-20 11:59 42.478373 -120.499588 161 37145ft 429kts
16-May-20 12:00 42.366807 -120.443806 167 37085ft 421kts
16-May-20 12:01 42.252702 -120.418743 175 37080ft 412kts
16-May-20 12:02 42.138539 -120.390849 168 37048ft 422kts
16-May-20 12:03 42.024209 -120.354931 169 37049ft 421kts
16-May-20 12:04 41.909560 -120.321590 169 37032ft 422kts
16-May-20 12:05 41.794813 -120.288599 169 37031ft 421kts
16-May-20 12:06 41.679865 -120.255644 170 37030ft 421kts
16-May-20 12:07 41.565278 -120.223339 170 37031ft 421kts
16-May-20 12:08 41.450898 -120.191435 170 37032ft 421kts
16-May-20 12:09 41.335819 -120.160457 171 37022ft 420kts
16-May-20 12:10 41.220827 -120.129786 170 37034ft 422kts
16-May-20 12:11 41.105715 -120.093566 168 37024ft 425kts
16-May-20 12:12 40.990307 -120.061669 170 37038ft 424kts
16-May-20 12:13 40.874622 -120.030236 168 37049ft 427kts
16-May-20 12:14 40.758269 -120.001215 177 37048ft 427kts
16-May-20 12:15 40.680199 -119.977315 176 37050ft 431kts
16-May-20 12:16 40.562688 -119.943531 177 37053ft 430kts
16-May-20 12:17 40.446502 -119.897651 164 37057ft 437kts
16-May-20 12:18 40.329498 -119.862240 175 37167ft 422kts
16-May-20 12:19 40.211894 -119.845614 169 37091ft 431kts
16-May-20 12:21 40.095050 -119.808651 163 37167ft 439kts
16-May-20 12:22 39.977836 -119.776426 173 37209ft 424kts
16-May-20 12:23 39.860107 -119.748598 165 37137ft 436kts
16-May-20 12:24 39.742548 -119.710424 168 37002ft 435kts
16-May-20 12:25 39.624900 -119.684082 167 37076ft 436kts
16-May-20 12:26 39.509767 -119.627815 146 37180ft 460kts
16-May-20 12:27 39.420319 -119.503193 130 36893ft 481kts
16-May-20 12:28 39.340226 -119.364880 139 37013ft 465kts
16-May-20 12:29 39.232486 -119.280522 145 37242ft 459kts
16-May-20 12:30 39.139401 -119.160131 136 37006ft 471kts
16-May-20 12:31 39.044210 -119.044076 133 37161ft 475kts
16-May-20 12:32 38.947985 -118.928575 147 37171ft 470kts
16-May-20 12:33 38.848534 -118.818268 142 37130ft 476kts
16-May-20 12:33 38.772411 -118.715239 138 37094ft 478kts
16-May-20 12:35 38.669372 -118.565779 126 37112ft 483kts
16-May-20 12:36 38.598198 -118.488238 150 37081ft 467kts
16-May-20 12:37 38.501578 -118.373220 141 37085ft 476kts
16-May-20 12:37 38.450154 -118.310697 141 37097ft 476kts
16-May-20 12:39 38.338079 -118.174711 141 37126ft 478kts
16-May-20 12:39 38.257723 -118.077422 141 37099ft 477kts
16-May-20 12:40 38.161540 -117.960172 141 37081ft 477kts
16-May-20 12:41 38.065103 -117.844410 142 37087ft 477kts
16-May-20 12:42 37.964765 -117.736471 151 37087ft 470kts
16-May-20 12:43 37.856139 -117.643166 151 37090ft 470kts
16-May-20 12:44 37.748101 -117.550381 150 37090ft 471kts
16-May-20 12:45 37.640019 -117.456923 150 37088ft 471kts
16-May-20 12:46 37.531291 -117.364146 150 37097ft 472kts
16-May-20 12:47 37.422292 -117.271512 151 37092ft 472kts
16-May-20 12:48 37.313264 -117.178977 150 37073ft 473kts
16-May-20 12:49 37.204137 -117.086802 150 37055ft 473kts
16-May-20 12:50 37.094774 -116.994287 150 37058ft 474kts
16-May-20 12:51 36.985344 -116.901912 150 37045ft 474kts
16-May-20 12:52 36.875426 -116.810081 150 37034ft 474kts
16-May-20 12:53 36.766643 -116.716336 145 37025ft 478kts
16-May-20 12:54 36.662087 -116.614398 145 37019ft 478kts
16-May-20 12:55 36.556760 -116.513328 145 37010ft 479kts
16-May-20 12:56 36.451224 -116.411787 145 37007ft 479kts
16-May-20 12:57 36.345490 -116.310780 145 37005ft 479kts
16-May-20 12:58 36.239506 -116.209991 145 37002ft 480kts
16-May-20 12:59 36.133417 -116.109462 145 37000ft 480kts
16-May-20 13:00 36.027164 -116.009129 145 37001ft 480kts
16-May-20 13:01 35.920948 -115.909009 144 36990ft 480kts
16-May-20 13:02 35.814886 -115.809473 145 36987ft 480kts
16-May-20 13:03 35.708299 -115.710078 145 36984ft 479kts
16-May-20 13:04 35.601772 -115.610909 145 36979ft 479kts
16-May-20 13:05 35.495435 -115.512332 145 36973ft 480kts
16-May-20 13:06 35.388930 -115.413695 144 36964ft 480kts
16-May-20 13:07 35.282495 -115.314958 144 36952ft 479kts
16-May-20 13:08 35.175115 -115.218444 153 36015ft 475kts
16-May-20 13:09 35.082178 -115.203245 195 34557ft 442kts
16-May-20 13:10 34.979114 -115.233023 195 32753ft 427kts
16-May-20 13:11 34.872419 -115.288897 204 30921ft 409kts
16-May-20 13:12 34.766552 -115.336174 199 29266ft 399kts
16-May-20 13:13 34.662171 -115.376733 195 27637ft 386kts
16-May-20 13:14 34.563445 -115.420268 197 26041ft 370kts
16-May-20 13:15 34.468765 -115.464071 203 24357ft 358kts
16-May-20 13:16 34.375252 -115.505578 197 21893ft 360kts
16-May-20 13:17 34.284769 -115.552803 207 19702ft 344kts
16-May-20 13:18 34.212569 -115.624377 223 17693ft 330kts
16-May-20 13:19 34.161152 -115.713284 222 16298ft 316kts
16-May-20 13:20 34.092917 -115.778655 209 14868ft 310kts
16-May-20 13:21 34.030561 -115.830434 208 13608ft 304kts
16-May-20 13:22 33.962979 -115.889387 208 12239ft 295kts
16-May-20 13:23 33.895812 -115.944372 214 11007ft 291kts
16-May-20 13:24 33.878281 -116.033474 289 10042ft 307kts
16-May-20 13:25 33.895109 -116.129115 271 9089ft 287kts
16-May-20 13:26 33.899259 -116.220072 266 8443ft 263kts
16-May-20 13:27 33.906532 -116.297106 280 7648ft 259kts
16-May-20 13:28 33.937492 -116.375071 303 6826ft 255kts
16-May-20 13:29 33.976303 -116.431489 290 7190ft 188kts
16-May-20 13:30 33.977113 -116.489091 237 6005ft 189kts
16-May-20 13:31 33.949883 -116.541250 215 4543ft 184kts
16-May-20 13:32 33.906149 -116.571945 166 2726ft 169kts
16-May-20 13:33 33.867474 -116.541724 134 1492ft 162kts
16-May-20 13:34 33.831935 -116.509745 125 508ft 147kts
16-May-20 13:35 33.824955 -116.502158 156 485ft 0kts
16-May-20 13:36 33.824819 -116.502148 182 485ft 0kts
16-May-20 13:37 33.823534 -116.502027 184 485ft 1kts
16-May-20 13:38 33.823205 -116.503329 266 485ft 8kts
16-May-20 13:39 33.823201 -116.503489 268 485ft 3kts
16-May-20 13:40 33.823128 -116.505762 283 485ft 2kts
16-May-20 13:41 33.823129 -116.505766 283 485ft 0kts
16-May-20 13:42 33.823136 -116.505807 281 485ft 0kts
16-May-20 13:43 33.823136 -116.505807 281 485ft 0kts
16-May-20 13:44 33.823136 -116.505807 281 485ft 0kts
16-May-20 13:45 33.823136 -116.505807 281 485ft 0kts
16-May-20 13:46 33.823136 -116.505807 281 485ft 0kts
16-May-20 13:47 33.823136 -116.505807 281 485ft 0kts
16-May-20 13:48 33.823136 -116.505807 281 485ft 0kts
16-May-20 13:49 33.823136 -116.505807 281 485ft 0kts

Navigation Log

Ident Type
Flight plan parsing failed, navigation log unavailable